createdAt,value
2017-11-13T00:01:25.401Z,97.49
2017-11-13T00:04:01.168Z,97.64
2017-11-13T00:06:36.112Z,97.52
2017-11-13T00:09:11.260Z,97.25
2017-11-13T00:11:46.394Z,97.21
2017-11-13T00:14:21.333Z,97.24
2017-11-13T00:16:56.901Z,96.95
2017-11-13T00:19:31.917Z,96.91
2017-11-13T00:22:06.808Z,96.87
2017-11-13T00:24:41.585Z,97.06
2017-11-13T00:27:16.345Z,97.22
2017-11-13T00:29:51.033Z,97.35
2017-11-13T00:32:25.894Z,97.33
2017-11-13T00:35:00.917Z,97.32
2017-11-13T00:37:36.548Z,97.28
2017-11-13T00:40:11.293Z,97.32
2017-11-13T00:42:45.885Z,97.36
2017-11-13T00:45:20.816Z,97.43
2017-11-13T00:47:55.486Z,97.49
2017-11-13T00:50:30.394Z,97.45
2017-11-13T00:53:06.047Z,97.53
2017-11-13T00:55:40.978Z,97.52
2017-11-13T00:58:15.898Z,97.41
2017-11-13T01:00:50.717Z,97.42
2017-11-13T01:03:26.208Z,97.53
2017-11-13T01:06:01.237Z,97.42
2017-11-13T01:08:35.993Z,97.56
2017-11-13T01:11:11.029Z,97.70
2017-11-13T01:13:47.028Z,97.58
2017-11-13T01:16:21.877Z,97.51
2017-11-13T01:18:57.621Z,97.51
2017-11-13T01:21:32.549Z,97.37
2017-11-13T01:24:07.832Z,97.39
2017-11-13T01:26:42.837Z,97.67
2017-11-13T01:29:17.788Z,97.74
2017-11-13T01:31:52.744Z,97.71
2017-11-13T01:34:27.441Z,97.61
2017-11-13T01:37:02.292Z,97.64
2017-11-13T01:39:36.959Z,97.71
2017-11-13T01:42:11.760Z,97.61
2017-11-13T01:44:46.456Z,97.72
2017-11-13T01:47:20.959Z,97.85
2017-11-13T01:49:55.465Z,97.82
2017-11-13T01:52:30.049Z,97.70
2017-11-13T01:55:05.115Z,97.67
2017-11-13T01:57:39.913Z,97.66
2017-11-13T02:00:14.964Z,97.62
2017-11-13T02:02:49.962Z,97.59
2017-11-13T02:05:25.008Z,97.47
2017-11-13T02:07:59.884Z,97.53
2017-11-13T02:10:34.644Z,97.45
2017-11-13T02:13:08.584Z,97.56
2017-11-13T02:15:43.720Z,97.43
2017-11-13T02:18:18.616Z,97.20
2017-11-13T02:20:54.141Z,97.06
2017-11-13T02:23:28.307Z,97.11
2017-11-13T02:26:03.510Z,97.19
2017-11-13T02:28:38.256Z,97.34
2017-11-13T02:31:12.586Z,97.24
2017-11-13T02:33:47.629Z,97.30
2017-11-13T02:36:22.317Z,97.24
2017-11-13T02:38:57.272Z,97.33
2017-11-13T02:41:31.594Z,97.34
2017-11-13T02:44:06.565Z,97.26
2017-11-13T02:46:41.076Z,97.26
2017-11-13T02:49:15.504Z,97.32
2017-11-13T02:51:50.372Z,97.43
2017-11-13T02:54:25.024Z,97.38
2017-11-13T02:56:59.740Z,97.30
2017-11-13T02:59:34.485Z,97.21
2017-11-13T03:02:09.442Z,97.43
2017-11-13T03:04:44.392Z,97.57
2017-11-13T03:07:18.928Z,97.62
2017-11-13T03:09:53.853Z,97.62
2017-11-13T03:12:28.834Z,97.23
2017-11-13T03:15:03.924Z,96.98
2017-11-13T03:17:38.946Z,96.98
2017-11-13T03:20:13.436Z,97.16
2017-11-13T03:22:47.841Z,97.02
2017-11-13T03:25:22.784Z,97.16
2017-11-13T03:27:57.653Z,97.28
2017-11-13T03:30:32.622Z,97.24
2017-11-13T03:33:07.681Z,97.06
2017-11-13T03:35:42.802Z,97.01
2017-11-13T03:38:17.842Z,97.13
2017-11-13T03:40:52.981Z,97.28
2017-11-13T03:43:28.071Z,97.44
2017-11-13T03:46:03.012Z,97.79
2017-11-13T03:48:38.048Z,98.09
2017-11-13T03:51:12.997Z,98.22
2017-11-13T03:53:47.904Z,98.41
2017-11-13T03:56:22.877Z,98.42
2017-11-13T03:58:57.560Z,98.50
2017-11-13T04:01:32.417Z,98.66
2017-11-13T04:04:07.248Z,98.79
2017-11-13T04:06:42.062Z,99.04
2017-11-13T04:09:16.467Z,99.17
2017-11-13T04:11:51.571Z,99.27
2017-11-13T04:14:26.196Z,99.42
2017-11-13T04:17:01.067Z,99.46
2017-11-13T04:19:35.725Z,99.30
2017-11-13T04:22:10.387Z,99.27
2017-11-13T04:24:45.271Z,99.09
2017-11-13T04:27:19.692Z,99.07
2017-11-13T04:29:54.802Z,98.97
2017-11-13T04:32:29.668Z,99.01
2017-11-13T04:35:04.761Z,98.85
2017-11-13T04:37:39.556Z,98.63
2017-11-13T04:40:14.477Z,98.48
2017-11-13T04:42:49.756Z,98.44
2017-11-13T04:45:24.770Z,98.40
2017-11-13T04:47:59.904Z,98.29
2017-11-13T04:50:35.225Z,98.17
2017-11-13T04:53:09.567Z,98.22
2017-11-13T04:55:44.724Z,98.09
2017-11-13T04:58:19.732Z,98.03
2017-11-13T05:00:54.527Z,98.14
2017-11-13T05:03:29.309Z,98.17
2017-11-13T05:06:03.956Z,98.26
2017-11-13T05:08:39.049Z,98.24
2017-11-13T05:11:14.536Z,98.19
2017-11-13T05:13:49.345Z,98.30
2017-11-13T05:16:23.919Z,98.22
2017-11-13T05:18:59.268Z,98.26
2017-11-13T05:21:34.005Z,98.31
2017-11-13T05:24:08.607Z,98.29
2017-11-13T05:26:43.506Z,98.09
2017-11-13T05:29:18.413Z,98.03
2017-11-13T05:31:53.018Z,98.20
2017-11-13T05:34:27.994Z,98.19
2017-11-13T05:37:02.764Z,98.43
2017-11-13T05:39:37.778Z,98.50
2017-11-13T05:42:12.164Z,98.48
2017-11-13T05:44:47.741Z,98.11
2017-11-13T05:47:22.890Z,98.06
2017-11-13T05:49:57.909Z,98.03
2017-11-13T05:52:32.736Z,98.08
2017-11-13T05:55:07.617Z,98.08
2017-11-13T05:57:42.871Z,98.11
2017-11-13T06:00:17.705Z,97.91
2017-11-13T06:02:52.548Z,97.78
2017-11-13T06:05:27.596Z,97.70
2017-11-13T06:08:02.731Z,97.45
2017-11-13T06:10:37.473Z,97.16
2017-11-13T06:13:11.661Z,96.78
2017-11-13T06:15:46.253Z,96.75
2017-11-13T06:18:21.180Z,96.85
2017-11-13T06:20:55.853Z,97.12
2017-11-13T06:23:30.673Z,97.34
2017-11-13T06:26:05.319Z,97.57
2017-11-13T06:28:41.195Z,97.73
2017-11-13T06:31:16.713Z,97.94
2017-11-13T06:33:51.639Z,98.09
2017-11-13T06:36:26.657Z,98.06
2017-11-13T06:39:01.313Z,98.12
2017-11-13T06:41:36.121Z,98.21
2017-11-13T06:44:11.168Z,98.20
2017-11-13T06:46:46.238Z,98.28
2017-11-13T06:49:20.929Z,98.23
2017-11-13T06:51:55.661Z,98.23
2017-11-13T06:54:30.464Z,98.27
2017-11-13T06:57:04.856Z,98.23
2017-11-13T06:59:39.887Z,98.16
2017-11-13T07:02:14.765Z,98.14
2017-11-13T07:04:50.021Z,98.08
2017-11-13T07:07:25.436Z,97.83
2017-11-13T07:10:00.500Z,97.69
2017-11-13T07:12:35.333Z,97.59
2017-11-13T07:15:10.985Z,97.53
2017-11-13T07:17:45.712Z,97.29
2017-11-13T07:20:20.641Z,97.25
2017-11-13T07:22:55.484Z,97.38
2017-11-13T07:25:30.621Z,97.51
2017-11-13T07:28:05.752Z,97.62
2017-11-13T07:30:40.425Z,97.75
2017-11-13T07:33:14.880Z,97.84
2017-11-13T07:35:49.953Z,97.94
2017-11-13T07:38:24.689Z,98.12
2017-11-13T07:41:00.337Z,98.33
2017-11-13T07:43:35.179Z,98.42
2017-11-13T07:46:09.924Z,98.65
2017-11-13T07:48:44.944Z,99.00
2017-11-13T07:51:19.762Z,99.25
2017-11-13T07:53:54.561Z,99.61
2017-11-13T07:56:29.336Z,99.75
2017-11-13T07:59:04.147Z,99.78
2017-11-13T08:01:38.977Z,99.94
2017-11-13T08:04:14.007Z,100.00
2017-11-13T08:06:49.868Z,100.00
2017-11-13T08:09:24.728Z,99.98
2017-11-13T08:11:59.652Z,99.67
2017-11-13T08:14:34.017Z,99.08
2017-11-13T08:17:09.236Z,98.61
2017-11-13T08:19:44.221Z,97.86
2017-11-13T08:22:19.329Z,97.35
2017-11-13T08:24:54.168Z,96.94
2017-11-13T08:27:28.677Z,95.47
2017-11-13T08:30:03.613Z,93.39
2017-11-13T08:32:38.552Z,92.78
2017-11-13T08:35:13.022Z,91.96
2017-11-13T08:37:48.449Z,91.60
2017-11-13T08:40:23.478Z,90.12
2017-11-13T08:42:58.011Z,88.93
2017-11-13T08:45:32.817Z,88.34
2017-11-13T08:48:07.781Z,86.21
2017-11-13T08:50:42.839Z,84.28
2017-11-13T08:53:17.553Z,84.24
2017-11-13T08:55:52.320Z,85.32
2017-11-13T08:58:27.116Z,85.29
2017-11-13T09:01:01.725Z,84.54
2017-11-13T09:03:36.518Z,83.82
2017-11-13T09:06:11.077Z,82.98
2017-11-13T09:08:45.997Z,82.11
2017-11-13T09:11:20.975Z,80.86
2017-11-13T09:13:56.808Z,80.52
2017-11-13T09:16:31.752Z,79.48
2017-11-13T09:19:06.909Z,78.51
2017-11-13T09:21:41.777Z,76.30
2017-11-13T09:24:16.169Z,77.40
2017-11-13T09:26:51.432Z,77.23
2017-11-13T09:29:26.380Z,76.83
2017-11-13T09:32:01.365Z,76.43
2017-11-13T09:34:36.782Z,75.88
2017-11-13T09:37:11.401Z,74.96
2017-11-13T09:39:46.010Z,74.55
2017-11-13T09:42:21.388Z,73.14
2017-11-13T09:44:56.610Z,72.95
2017-11-13T09:47:31.684Z,72.15
2017-11-13T09:50:06.767Z,70.61
2017-11-13T09:52:41.717Z,70.67
2017-11-13T09:55:16.928Z,71.61
2017-11-13T09:57:52.953Z,71.07
2017-11-13T10:00:27.288Z,69.42
2017-11-13T10:03:02.040Z,68.94
2017-11-13T10:05:36.924Z,68.35
2017-11-13T10:08:11.912Z,68.22
2017-11-13T10:10:46.757Z,67.55
2017-11-13T10:13:22.197Z,66.65
2017-11-13T10:15:57.556Z,66.54
2017-11-13T10:18:32.753Z,64.17
2017-11-13T10:21:06.842Z,64.77
2017-11-13T10:23:41.861Z,65.22
2017-11-13T10:26:16.986Z,65.72
2017-11-13T10:28:52.280Z,65.51
2017-11-13T10:31:26.891Z,65.71
2017-11-13T10:34:01.361Z,65.18
2017-11-13T10:36:36.280Z,64.24
2017-11-13T10:39:11.522Z,64.72
2017-11-13T10:41:46.560Z,64.22
2017-11-13T10:44:21.484Z,63.66
2017-11-13T10:46:55.849Z,61.70
2017-11-13T10:49:30.978Z,62.70
2017-11-13T10:52:06.134Z,62.58
2017-11-13T10:54:40.979Z,60.86
2017-11-13T10:57:15.587Z,59.93
2017-11-13T10:59:50.595Z,61.23
2017-11-13T11:02:25.007Z,61.13
2017-11-13T11:04:59.333Z,59.86
2017-11-13T11:07:33.944Z,59.67
2017-11-13T11:10:08.690Z,60.49
2017-11-13T11:12:43.301Z,58.13
2017-11-13T11:15:18.328Z,57.30
2017-11-13T11:17:52.804Z,58.77
2017-11-13T11:20:31.885Z,58.27
2017-11-13T11:23:09.268Z,59.76
2017-11-13T11:25:43.725Z,58.18
2017-11-13T11:41:44.432Z,56.74
2017-11-13T11:44:37.877Z,57.29
2017-11-13T11:47:13.639Z,57.15
2017-11-13T11:49:48.268Z,57.23
2017-11-13T11:52:23.045Z,56.29
2017-11-13T12:08:22.225Z,56.88
2017-11-13T12:10:56.451Z,56.80
2017-11-13T12:13:31.133Z,57.04
2017-11-13T12:16:06.261Z,57.51
2017-11-13T12:18:40.590Z,57.76
2017-11-13T12:21:15.188Z,57.63
2017-11-13T12:23:50.201Z,58.01
2017-11-13T12:26:25.122Z,57.92
2017-11-13T12:28:59.756Z,57.83
2017-11-13T12:31:34.620Z,57.47
2017-11-13T12:34:09.360Z,55.84
2017-11-13T12:36:44.081Z,55.70
2017-11-13T12:39:18.793Z,57.20
2017-11-13T12:41:53.512Z,58.25
2017-11-13T12:44:28.128Z,58.63
2017-11-13T12:47:02.869Z,57.49
2017-11-13T12:49:37.589Z,58.08
2017-11-13T12:52:12.066Z,57.78
2017-11-13T12:54:47.009Z,58.19
2017-11-13T12:57:21.502Z,57.20
2017-11-13T12:59:55.853Z,57.18
2017-11-13T13:02:30.617Z,56.90
2017-11-13T13:05:05.342Z,58.08
2017-11-13T13:07:40.297Z,59.23
2017-11-13T13:10:15.268Z,59.91
2017-11-13T13:12:50.249Z,59.45
2017-11-13T13:15:24.755Z,59.48
2017-11-13T13:17:59.745Z,59.75
2017-11-13T13:20:34.371Z,59.07
2017-11-13T13:23:09.063Z,58.81
2017-11-13T13:25:43.783Z,60.20
2017-11-13T13:28:18.080Z,62.43
2017-11-13T13:30:53.469Z,63.44
2017-11-13T13:33:28.379Z,62.47
2017-11-13T13:36:03.064Z,63.17
2017-11-13T13:38:37.993Z,63.59
2017-11-13T13:41:13.888Z,64.00
2017-11-13T13:43:48.612Z,64.84
2017-11-13T13:46:23.394Z,64.97
2017-11-13T13:48:58.988Z,65.10
2017-11-13T13:51:33.654Z,65.35
2017-11-13T13:54:08.476Z,66.93
2017-11-13T13:56:43.278Z,66.37
2017-11-13T13:59:17.713Z,67.01
2017-11-13T14:01:53.482Z,65.93
2017-11-13T14:04:28.196Z,64.64
2017-11-13T14:07:02.977Z,65.57
2017-11-13T14:09:37.957Z,65.88
2017-11-13T14:12:12.620Z,65.46
2017-11-13T14:14:47.300Z,66.58
2017-11-13T14:17:23.373Z,67.77
2017-11-13T14:19:58.027Z,67.89
2017-11-13T14:22:32.838Z,68.66
2017-11-13T14:25:07.529Z,69.71
2017-11-13T14:27:43.413Z,70.10
2017-11-13T14:30:18.129Z,70.05
2017-11-13T14:32:52.851Z,69.87
2017-11-13T14:35:27.633Z,69.78
2017-11-13T14:38:02.240Z,69.20
2017-11-13T14:40:36.960Z,69.41
2017-11-13T14:43:12.193Z,69.38
2017-11-13T14:45:47.219Z,69.83
2017-11-13T14:48:22.508Z,69.94
2017-11-13T14:50:57.449Z,70.16
2017-11-13T14:53:32.242Z,70.52
2017-11-13T14:56:06.932Z,70.98
2017-11-13T14:58:41.621Z,71.31
2017-11-13T15:01:17.564Z,71.50
2017-11-13T15:03:52.587Z,71.33
2017-11-13T15:06:27.364Z,71.26
2017-11-13T15:09:02.848Z,71.49
2017-11-13T15:11:37.584Z,71.78
2017-11-13T15:14:12.331Z,72.02
2017-11-13T15:16:47.076Z,72.21
2017-11-13T15:19:21.841Z,72.30
2017-11-13T15:21:56.464Z,72.25
2017-11-13T15:24:31.058Z,72.42
2017-11-13T15:27:05.753Z,72.51
2017-11-13T15:29:40.385Z,72.40
2017-11-13T15:32:14.892Z,72.64
2017-11-13T15:34:49.684Z,72.72
2017-11-13T15:37:24.384Z,72.85
2017-11-13T15:40:00.133Z,72.94
2017-11-13T15:42:34.819Z,73.06
2017-11-13T15:45:09.172Z,73.21
2017-11-13T15:47:44.097Z,73.45
2017-11-13T15:50:19.857Z,73.66
2017-11-13T15:52:55.308Z,73.99
2017-11-13T15:55:29.932Z,74.37
2017-11-13T15:58:05.041Z,74.86
2017-11-13T16:00:40.154Z,75.28
2017-11-13T16:03:15.249Z,75.52
2017-11-13T16:05:49.996Z,75.59
2017-11-13T16:08:25.132Z,75.48
2017-11-13T16:10:59.858Z,75.57
2017-11-13T16:13:35.465Z,75.66
2017-11-13T16:16:11.028Z,75.67
2017-11-13T16:18:46.674Z,75.78
2017-11-13T16:21:22.240Z,75.80
2017-11-13T16:23:56.972Z,75.96
2017-11-13T16:26:31.606Z,76.13
2017-11-13T16:29:06.461Z,76.33
2017-11-13T16:31:41.116Z,76.42
2017-11-13T16:34:16.100Z,76.46
2017-11-13T16:36:50.813Z,76.49
2017-11-13T16:39:25.583Z,76.60
2017-11-13T16:42:00.704Z,76.90
2017-11-13T16:44:35.736Z,77.04
2017-11-13T16:47:10.550Z,77.09
2017-11-13T16:49:47.192Z,77.24
2017-11-13T16:52:21.833Z,77.32
2017-11-13T16:54:56.652Z,77.45
2017-11-13T16:57:31.196Z,77.65
2017-11-13T17:00:06.009Z,77.72
2017-11-13T17:02:41.052Z,77.79
2017-11-13T17:05:15.789Z,78.02
2017-11-13T17:07:50.520Z,78.22
2017-11-13T17:10:25.441Z,78.48
2017-11-13T17:13:00.186Z,78.72
2017-11-13T17:15:34.813Z,79.10
2017-11-13T17:18:09.488Z,79.43
2017-11-13T17:20:44.305Z,79.70
2017-11-13T17:23:20.016Z,80.11
2017-11-13T17:25:54.896Z,80.49
2017-11-13T17:28:29.301Z,80.47
2017-11-13T17:31:03.921Z,80.47
2017-11-13T17:33:38.885Z,80.67
2017-11-13T17:36:15.493Z,80.61
2017-11-13T17:38:50.133Z,80.75
2017-11-13T17:41:24.785Z,81.16
2017-11-13T17:43:59.613Z,81.36
2017-11-13T17:46:35.536Z,81.87
2017-11-13T17:49:10.369Z,82.22
2017-11-13T17:51:45.229Z,82.49
2017-11-13T17:54:19.947Z,82.70
2017-11-13T17:56:54.776Z,82.99
2017-11-13T17:59:29.383Z,83.29
2017-11-13T18:02:03.945Z,83.42
2017-11-13T18:04:38.935Z,83.29
2017-11-13T18:07:13.776Z,83.38
2017-11-13T18:09:49.523Z,83.32
2017-11-13T18:12:24.477Z,83.40
2017-11-13T18:14:58.912Z,83.35
2017-11-13T18:17:33.953Z,83.38
2017-11-13T18:20:08.764Z,83.37
2017-11-13T18:22:44.542Z,83.48
2017-11-13T18:25:20.416Z,83.83
2017-11-13T18:27:55.076Z,84.05
2017-11-13T18:30:29.720Z,84.24
2017-11-13T18:33:04.217Z,84.31
2017-11-13T18:35:40.076Z,84.54
2017-11-13T18:38:15.565Z,84.82
2017-11-13T18:40:50.755Z,84.83
2017-11-13T18:43:25.392Z,84.74
2017-11-13T18:45:59.815Z,84.67
2017-11-13T18:48:34.569Z,84.61
2017-11-13T18:51:09.470Z,84.37
2017-11-13T18:53:44.249Z,84.41
2017-11-13T18:56:19.328Z,84.67
2017-11-13T18:58:54.176Z,84.98
2017-11-13T19:01:29.254Z,85.07
2017-11-13T19:04:03.934Z,84.93
2017-11-13T19:06:39.012Z,84.99
2017-11-13T19:09:13.815Z,85.11
2017-11-13T19:11:48.843Z,85.20
2017-11-13T19:14:24.716Z,85.16
2017-11-13T19:16:59.632Z,85.19
2017-11-13T19:19:34.501Z,85.23
2017-11-13T19:22:09.285Z,85.31
2017-11-13T19:24:44.532Z,85.37
2017-11-13T19:27:19.845Z,85.76
2017-11-13T19:29:54.944Z,86.34
2017-11-13T19:32:29.980Z,86.86
2017-11-13T19:35:04.488Z,87.34
2017-11-13T19:37:39.365Z,87.79
2017-11-13T19:40:14.175Z,87.91
2017-11-13T19:42:48.656Z,88.17
2017-11-13T19:45:23.645Z,88.07
2017-11-13T19:47:58.948Z,88.15
2017-11-13T19:50:33.364Z,88.07
2017-11-13T19:53:08.332Z,88.14
2017-11-13T19:55:43.592Z,88.17
2017-11-13T19:58:18.437Z,87.75
2017-11-13T20:00:53.173Z,87.58
2017-11-13T20:03:28.123Z,87.51
2017-11-13T20:06:03.055Z,87.51
2017-11-13T20:08:38.839Z,87.41
2017-11-13T20:11:13.465Z,87.56
2017-11-13T20:13:48.209Z,87.67
2017-11-13T20:16:23.946Z,87.54
2017-11-13T20:18:58.639Z,87.34
2017-11-13T20:21:33.576Z,87.05
2017-11-13T20:24:08.440Z,87.01
2017-11-13T20:26:43.271Z,87.13
2017-11-13T20:29:17.981Z,87.32
2017-11-13T20:31:53.594Z,87.58
2017-11-13T20:34:28.800Z,87.72
2017-11-13T20:37:03.706Z,87.68
2017-11-13T20:39:38.837Z,87.77
2017-11-13T20:42:13.560Z,87.64
2017-11-13T20:44:48.151Z,87.67
2017-11-13T20:47:23.209Z,87.77
2017-11-13T20:49:58.277Z,87.62
2017-11-13T20:52:33.057Z,87.71
2017-11-13T20:55:07.773Z,87.74
2017-11-13T20:57:42.640Z,87.75
2017-11-13T21:00:17.120Z,87.75
2017-11-13T21:02:51.865Z,87.86
2017-11-13T21:05:26.941Z,87.92
2017-11-13T21:08:02.257Z,87.71
2017-11-13T21:10:37.060Z,88.08
2017-11-13T21:13:11.860Z,88.34
2017-11-13T21:15:46.671Z,88.66
2017-11-13T21:18:21.194Z,88.89
2017-11-13T21:20:56.569Z,89.06
2017-11-13T21:23:31.509Z,88.74
2017-11-13T21:26:06.452Z,88.66
2017-11-13T21:28:41.057Z,88.88
2017-11-13T21:31:16.829Z,88.78
2017-11-13T21:33:51.717Z,88.73
2017-11-13T21:36:26.489Z,88.79
2017-11-13T21:39:01.596Z,89.03
2017-11-13T21:41:36.413Z,89.54
2017-11-13T21:44:11.161Z,89.78
2017-11-13T21:46:45.864Z,89.76
2017-11-13T21:49:20.912Z,89.83
2017-11-13T21:51:56.968Z,89.70
2017-11-13T21:54:31.607Z,89.35
2017-11-13T21:57:05.960Z,89.29
2017-11-13T21:59:41.175Z,89.32
2017-11-13T22:02:15.888Z,89.13
2017-11-13T22:04:51.054Z,88.94
2017-11-13T22:07:25.953Z,88.84
2017-11-13T22:10:00.885Z,88.80
2017-11-13T22:12:35.705Z,88.32
2017-11-13T22:15:10.709Z,87.95
2017-11-13T22:17:46.210Z,87.97
2017-11-13T22:20:20.868Z,88.06
2017-11-13T22:22:55.706Z,88.20
2017-11-13T22:25:30.628Z,88.35
2017-11-13T22:28:05.249Z,88.45
2017-11-13T22:30:40.057Z,88.31
2017-11-13T22:33:14.932Z,88.05
2017-11-13T22:35:49.741Z,88.05
2017-11-13T22:38:24.352Z,88.26
2017-11-13T22:40:59.213Z,88.40
2017-11-13T22:43:33.809Z,88.42
2017-11-13T22:46:08.636Z,88.38
2017-11-13T22:48:43.367Z,88.28
2017-11-13T22:51:18.393Z,88.18
2017-11-13T22:53:53.425Z,87.99
2017-11-13T22:56:28.172Z,88.01
2017-11-13T22:59:02.956Z,87.86
2017-11-13T23:01:38.085Z,87.78
2017-11-13T23:04:13.819Z,87.99
2017-11-13T23:06:48.932Z,88.09
2017-11-13T23:09:23.364Z,88.29
2017-11-13T23:11:58.196Z,88.41
2017-11-13T23:14:32.893Z,88.38
2017-11-13T23:17:07.538Z,88.42
2017-11-13T23:19:43.180Z,88.45
2017-11-13T23:22:17.990Z,88.54
2017-11-13T23:24:53.664Z,88.63
2017-11-13T23:27:28.484Z,88.49
2017-11-13T23:30:02.883Z,88.26
2017-11-13T23:32:37.844Z,88.21
2017-11-13T23:35:12.568Z,88.14
2017-11-13T23:37:47.441Z,88.04
2017-11-13T23:40:22.380Z,88.23
2017-11-13T23:42:57.167Z,88.23
2017-11-13T23:45:32.008Z,88.17
2017-11-13T23:48:06.735Z,88.26
2017-11-13T23:50:41.875Z,88.29
2017-11-13T23:53:16.953Z,88.36
2017-11-13T23:55:51.482Z,88.45
2017-11-13T23:58:27.029Z,88.59
